sensor_id;sensor_type;location;lat;lon;timestamp;P1;durP1;ratioP1;P2;durP2;ratioP2
6513;SDS011;3290;47.716;9.070;2024-03-02T00:01:05;22.87;;;10.80;;
6513;SDS011;3290;47.716;9.070;2024-03-02T00:03:31;18.50;;;11.87;;
6513;SDS011;3290;47.716;9.070;2024-03-02T00:05:57;26.10;;;13.33;;
6513;SDS011;3290;47.716;9.070;2024-03-02T00:08:23;25.70;;;12.77;;
6513;SDS011;3290;47.716;9.070;2024-03-02T00:10:50;21.00;;;12.90;;
6513;SDS011;3290;47.716;9.070;2024-03-02T00:13:16;21.80;;;12.30;;
6513;SDS011;3290;47.716;9.070;2024-03-02T00:15:48;24.43;;;13.10;;
6513;SDS011;3290;47.716;9.070;2024-03-02T00:18:18;25.73;;;13.90;;
6513;SDS011;3290;47.716;9.070;2024-03-02T00:21:04;25.77;;;14.40;;
6513;SDS011;3290;47.716;9.070;2024-03-02T00:23:34;22.30;;;12.90;;
6513;SDS011;3290;47.716;9.070;2024-03-02T00:26:00;37.83;;;15.33;;
6513;SDS011;3290;47.716;9.070;2024-03-02T00:31:04;37.57;;;16.10;;
6513;SDS011;3290;47.716;9.070;2024-03-02T00:33:34;52.07;;;19.63;;
6513;SDS011;3290;47.716;9.070;2024-03-02T00:36:05;48.07;;;17.47;;
6513;SDS011;3290;47.716;9.070;2024-03-02T00:38:31;32.27;;;15.53;;
6513;SDS011;3290;47.716;9.070;2024-03-02T00:41:04;48.13;;;17.17;;
6513;SDS011;3290;47.716;9.070;2024-03-02T00:46:13;29.77;;;15.60;;
6513;SDS011;3290;47.716;9.070;2024-03-02T00:48:46;39.10;;;17.87;;
6513;SDS011;3290;47.716;9.070;2024-03-02T00:51:16;31.90;;;17.03;;
6513;SDS011;3290;47.716;9.070;2024-03-02T00:53:41;35.70;;;18.50;;
6513;SDS011;3290;47.716;9.070;2024-03-02T00:56:09;31.33;;;17.87;;
6513;SDS011;3290;47.716;9.070;2024-03-02T00:58:35;39.73;;;19.60;;
6513;SDS011;3290;47.716;9.070;2024-03-02T01:01:01;36.93;;;19.77;;
6513;SDS011;3290;47.716;9.070;2024-03-02T01:03:26;36.30;;;19.30;;
6513;SDS011;3290;47.716;9.070;2024-03-02T01:05:52;37.70;;;19.90;;
6513;SDS011;3290;47.716;9.070;2024-03-02T01:08:17;35.00;;;19.20;;
6513;SDS011;3290;47.716;9.070;2024-03-02T01:10:43;37.10;;;18.80;;
6513;SDS011;3290;47.716;9.070;2024-03-02T01:13:08;36.87;;;20.17;;
6513;SDS011;3290;47.716;9.070;2024-03-02T01:15:34;39.13;;;20.10;;
6513;SDS011;3290;47.716;9.070;2024-03-02T01:17:59;34.80;;;19.73;;
6513;SDS011;3290;47.716;9.070;2024-03-02T01:20:25;35.80;;;19.77;;
6513;SDS011;3290;47.716;9.070;2024-03-02T01:22:50;39.40;;;20.97;;
6513;SDS011;3290;47.716;9.070;2024-03-02T01:25:16;38.23;;;19.97;;
6513;SDS011;3290;47.716;9.070;2024-03-02T01:27:42;42.43;;;20.83;;
6513;SDS011;3290;47.716;9.070;2024-03-02T01:30:08;43.50;;;22.60;;
6513;SDS011;3290;47.716;9.070;2024-03-02T01:32:33;45.33;;;20.67;;
6513;SDS011;3290;47.716;9.070;2024-03-02T01:34:59;44.53;;;21.20;;
6513;SDS011;3290;47.716;9.070;2024-03-02T01:37:24;42.53;;;22.50;;
6513;SDS011;3290;47.716;9.070;2024-03-02T01:39:50;62.53;;;21.50;;
6513;SDS011;3290;47.716;9.070;2024-03-02T01:42:15;83.20;;;23.13;;
6513;SDS011;3290;47.716;9.070;2024-03-02T01:44:40;71.47;;;24.27;;
6513;SDS011;3290;47.716;9.070;2024-03-02T01:47:06;62.43;;;24.17;;
6513;SDS011;3290;47.716;9.070;2024-03-02T01:49:31;53.00;;;21.90;;
6513;SDS011;3290;47.716;9.070;2024-03-02T01:51:59;42.20;;;20.70;;
6513;SDS011;3290;47.716;9.070;2024-03-02T01:54:24;48.00;;;23.87;;
6513;SDS011;3290;47.716;9.070;2024-03-02T01:56:50;50.13;;;21.73;;
6513;SDS011;3290;47.716;9.070;2024-03-02T01:59:15;56.60;;;22.80;;
6513;SDS011;3290;47.716;9.070;2024-03-02T02:01:41;73.70;;;22.80;;
6513;SDS011;3290;47.716;9.070;2024-03-02T02:04:06;57.67;;;21.63;;
6513;SDS011;3290;47.716;9.070;2024-03-02T02:06:32;40.00;;;21.53;;
6513;SDS011;3290;47.716;9.070;2024-03-02T02:08:58;49.43;;;22.97;;
6513;SDS011;3290;47.716;9.070;2024-03-02T02:11:24;45.70;;;21.30;;
6513;SDS011;3290;47.716;9.070;2024-03-02T02:13:49;48.90;;;22.73;;
6513;SDS011;3290;47.716;9.070;2024-03-02T02:16:15;47.30;;;22.47;;
6513;SDS011;3290;47.716;9.070;2024-03-02T02:18:40;44.77;;;22.33;;
6513;SDS011;3290;47.716;9.070;2024-03-02T02:21:06;61.23;;;24.20;;
6513;SDS011;3290;47.716;9.070;2024-03-02T02:23:31;43.10;;;21.43;;
6513;SDS011;3290;47.716;9.070;2024-03-02T02:25:56;40.70;;;19.20;;
6513;SDS011;3290;47.716;9.070;2024-03-02T02:28:22;39.17;;;19.47;;
6513;SDS011;3290;47.716;9.070;2024-03-02T02:30:47;46.10;;;22.50;;
6513;SDS011;3290;47.716;9.070;2024-03-02T02:33:12;50.70;;;21.23;;
6513;SDS011;3290;47.716;9.070;2024-03-02T02:35:38;87.13;;;24.10;;
6513;SDS011;3290;47.716;9.070;2024-03-02T02:38:03;84.53;;;24.40;;
6513;SDS011;3290;47.716;9.070;2024-03-02T02:40:29;89.67;;;22.67;;
6513;SDS011;3290;47.716;9.070;2024-03-02T02:42:55;188.80;;;24.30;;
6513;SDS011;3290;47.716;9.070;2024-03-02T02:45:21;79.03;;;25.10;;
6513;SDS011;3290;47.716;9.070;2024-03-02T02:47:47;160.00;;;28.77;;
6513;SDS011;3290;47.716;9.070;2024-03-02T02:50:12;81.67;;;25.27;;
6513;SDS011;3290;47.716;9.070;2024-03-02T02:52:38;107.03;;;25.00;;
6513;SDS011;3290;47.716;9.070;2024-03-02T02:55:06;88.17;;;25.23;;
6513;SDS011;3290;47.716;9.070;2024-03-02T02:57:32;163.47;;;27.73;;
6513;SDS011;3290;47.716;9.070;2024-03-02T03:00:03;217.47;;;28.83;;
6513;SDS011;3290;47.716;9.070;2024-03-02T03:02:34;101.63;;;24.40;;
6513;SDS011;3290;47.716;9.070;2024-03-02T03:05:00;86.73;;;23.10;;
6513;SDS011;3290;47.716;9.070;2024-03-02T03:07:26;55.43;;;23.07;;
6513;SDS011;3290;47.716;9.070;2024-03-02T03:09:51;191.00;;;25.30;;
6513;SDS011;3290;47.716;9.070;2024-03-02T03:12:16;55.10;;;22.70;;
6513;SDS011;3290;47.716;9.070;2024-03-02T03:14:42;79.03;;;23.33;;
6513;SDS011;3290;47.716;9.070;2024-03-02T03:17:07;247.87;;;27.40;;
6513;SDS011;3290;47.716;9.070;2024-03-02T03:19:33;233.33;;;28.83;;
6513;SDS011;3290;47.716;9.070;2024-03-02T03:21:58;106.57;;;22.13;;
6513;SDS011;3290;47.716;9.070;2024-03-02T03:24:24;85.43;;;24.10;;
6513;SDS011;3290;47.716;9.070;2024-03-02T03:26:49;169.87;;;23.90;;
6513;SDS011;3290;47.716;9.070;2024-03-02T03:29:14;202.50;;;23.27;;
6513;SDS011;3290;47.716;9.070;2024-03-02T03:31:40;183.33;;;23.80;;
6513;SDS011;3290;47.716;9.070;2024-03-02T03:34:05;173.03;;;23.10;;
6513;SDS011;3290;47.716;9.070;2024-03-02T03:36:30;124.40;;;22.90;;
6513;SDS011;3290;47.716;9.070;2024-03-02T03:38:56;184.60;;;22.43;;
6513;SDS011;3290;47.716;9.070;2024-03-02T03:41:22;138.37;;;23.47;;
6513;SDS011;3290;47.716;9.070;2024-03-02T03:43:48;171.33;;;23.17;;
6513;SDS011;3290;47.716;9.070;2024-03-02T03:46:13;263.27;;;32.13;;
6513;SDS011;3290;47.716;9.070;2024-03-02T03:48:38;162.73;;;23.03;;
6513;SDS011;3290;47.716;9.070;2024-03-02T03:51:04;88.37;;;20.87;;
6513;SDS011;3290;47.716;9.070;2024-03-02T03:53:29;143.10;;;20.60;;
6513;SDS011;3290;47.716;9.070;2024-03-02T03:55:54;219.13;;;22.30;;
6513;SDS011;3290;47.716;9.070;2024-03-02T03:58:20;172.70;;;22.37;;
6513;SDS011;3290;47.716;9.070;2024-03-02T04:00:46;232.03;;;26.20;;
6513;SDS011;3290;47.716;9.070;2024-03-02T04:03:11;153.90;;;22.47;;
6513;SDS011;3290;47.716;9.070;2024-03-02T04:05:37;66.57;;;20.30;;
6513;SDS011;3290;47.716;9.070;2024-03-02T04:08:03;104.90;;;23.20;;
6513;SDS011;3290;47.716;9.070;2024-03-02T04:10:29;104.40;;;22.50;;
6513;SDS011;3290;47.716;9.070;2024-03-02T04:12:55;85.03;;;21.07;;
6513;SDS011;3290;47.716;9.070;2024-03-02T04:15:20;93.57;;;24.70;;
6513;SDS011;3290;47.716;9.070;2024-03-02T04:17:48;169.37;;;31.33;;
6513;SDS011;3290;47.716;9.070;2024-03-02T04:20:13;174.67;;;28.13;;
6513;SDS011;3290;47.716;9.070;2024-03-02T04:22:39;123.60;;;25.27;;
6513;SDS011;3290;47.716;9.070;2024-03-02T04:25:04;188.10;;;23.47;;
6513;SDS011;3290;47.716;9.070;2024-03-02T04:27:30;93.63;;;20.53;;
6513;SDS011;3290;47.716;9.070;2024-03-02T04:29:57;125.00;;;21.87;;
6513;SDS011;3290;47.716;9.070;2024-03-02T04:32:22;70.50;;;21.80;;
6513;SDS011;3290;47.716;9.070;2024-03-02T04:34:48;96.33;;;17.60;;
6513;SDS011;3290;47.716;9.070;2024-03-02T04:37:15;101.20;;;19.30;;
6513;SDS011;3290;47.716;9.070;2024-03-02T04:39:41;65.53;;;21.97;;
6513;SDS011;3290;47.716;9.070;2024-03-02T04:42:06;54.60;;;19.60;;
6513;SDS011;3290;47.716;9.070;2024-03-02T04:44:31;62.67;;;23.17;;
6513;SDS011;3290;47.716;9.070;2024-03-02T04:46:57;37.73;;;19.50;;
6513;SDS011;3290;47.716;9.070;2024-03-02T04:49:23;77.77;;;20.13;;
6513;SDS011;3290;47.716;9.070;2024-03-02T04:51:48;74.30;;;17.27;;
6513;SDS011;3290;47.716;9.070;2024-03-02T04:54:13;52.47;;;16.77;;
6513;SDS011;3290;47.716;9.070;2024-03-02T04:56:39;56.00;;;16.13;;
6513;SDS011;3290;47.716;9.070;2024-03-02T04:59:14;72.77;;;22.10;;
6513;SDS011;3290;47.716;9.070;2024-03-02T05:01:43;74.23;;;23.30;;
6513;SDS011;3290;47.716;9.070;2024-03-02T05:04:09;125.50;;;23.30;;
6513;SDS011;3290;47.716;9.070;2024-03-02T05:06:37;55.70;;;22.90;;
6513;SDS011;3290;47.716;9.070;2024-03-02T05:09:03;169.60;;;25.07;;
6513;SDS011;3290;47.716;9.070;2024-03-02T05:11:28;196.73;;;23.73;;
6513;SDS011;3290;47.716;9.070;2024-03-02T05:14:13;179.33;;;30.13;;
6513;SDS011;3290;47.716;9.070;2024-03-02T05:16:39;262.30;;;20.07;;
6513;SDS011;3290;47.716;9.070;2024-03-02T05:19:05;92.67;;;20.73;;
6513;SDS011;3290;47.716;9.070;2024-03-02T05:21:33;215.53;;;24.10;;
6513;SDS011;3290;47.716;9.070;2024-03-02T05:23:59;195.07;;;23.13;;
6513;SDS011;3290;47.716;9.070;2024-03-02T05:26:25;220.60;;;23.20;;
6513;SDS011;3290;47.716;9.070;2024-03-02T05:28:50;102.37;;;22.90;;
6513;SDS011;3290;47.716;9.070;2024-03-02T05:31:16;220.87;;;25.67;;
6513;SDS011;3290;47.716;9.070;2024-03-02T05:33:41;151.70;;;25.60;;
6513;SDS011;3290;47.716;9.070;2024-03-02T05:36:07;126.33;;;21.80;;
6513;SDS011;3290;47.716;9.070;2024-03-02T05:38:35;198.90;;;23.10;;
6513;SDS011;3290;47.716;9.070;2024-03-02T05:41:01;133.37;;;20.83;;
6513;SDS011;3290;47.716;9.070;2024-03-02T05:43:26;92.57;;;20.80;;
6513;SDS011;3290;47.716;9.070;2024-03-02T05:45:52;154.53;;;20.63;;
6513;SDS011;3290;47.716;9.070;2024-03-02T05:48:17;137.07;;;20.50;;
6513;SDS011;3290;47.716;9.070;2024-03-02T05:50:42;90.73;;;19.50;;
6513;SDS011;3290;47.716;9.070;2024-03-02T05:53:08;69.93;;;21.13;;
6513;SDS011;3290;47.716;9.070;2024-03-02T05:55:34;74.13;;;20.33;;
6513;SDS011;3290;47.716;9.070;2024-03-02T05:57:59;118.17;;;19.70;;
6513;SDS011;3290;47.716;9.070;2024-03-02T06:00:31;88.40;;;18.53;;
6513;SDS011;3290;47.716;9.070;2024-03-02T06:02:56;71.80;;;23.33;;
6513;SDS011;3290;47.716;9.070;2024-03-02T06:05:22;64.33;;;23.17;;
6513;SDS011;3290;47.716;9.070;2024-03-02T06:07:47;65.07;;;23.10;;
6513;SDS011;3290;47.716;9.070;2024-03-02T06:10:12;65.90;;;19.37;;
6513;SDS011;3290;47.716;9.070;2024-03-02T06:12:38;110.80;;;22.00;;
6513;SDS011;3290;47.716;9.070;2024-03-02T06:15:03;87.90;;;20.20;;
6513;SDS011;3290;47.716;9.070;2024-03-02T06:17:29;90.97;;;19.97;;
6513;SDS011;3290;47.716;9.070;2024-03-02T06:19:55;44.00;;;20.80;;
6513;SDS011;3290;47.716;9.070;2024-03-02T06:22:20;67.40;;;20.20;;
6513;SDS011;3290;47.716;9.070;2024-03-02T06:24:48;55.80;;;19.77;;
6513;SDS011;3290;47.716;9.070;2024-03-02T06:27:14;94.83;;;19.00;;
6513;SDS011;3290;47.716;9.070;2024-03-02T06:29:39;55.97;;;21.37;;
6513;SDS011;3290;47.716;9.070;2024-03-02T06:32:04;47.43;;;19.07;;
6513;SDS011;3290;47.716;9.070;2024-03-02T06:34:30;54.53;;;19.13;;
6513;SDS011;3290;47.716;9.070;2024-03-02T06:36:56;35.90;;;18.27;;
6513;SDS011;3290;47.716;9.070;2024-03-02T06:39:21;36.80;;;18.50;;
6513;SDS011;3290;47.716;9.070;2024-03-02T06:41:46;60.97;;;20.67;;
6513;SDS011;3290;47.716;9.070;2024-03-02T06:44:12;50.10;;;21.00;;
6513;SDS011;3290;47.716;9.070;2024-03-02T06:46:38;72.83;;;20.27;;
6513;SDS011;3290;47.716;9.070;2024-03-02T06:49:03;62.73;;;22.20;;
6513;SDS011;3290;47.716;9.070;2024-03-02T06:51:29;47.30;;;20.70;;
6513;SDS011;3290;47.716;9.070;2024-03-02T06:53:54;84.03;;;20.07;;
6513;SDS011;3290;47.716;9.070;2024-03-02T06:56:20;49.10;;;21.07;;
6513;SDS011;3290;47.716;9.070;2024-03-02T06:58:46;59.67;;;21.53;;
6513;SDS011;3290;47.716;9.070;2024-03-02T07:01:12;69.47;;;21.30;;
6513;SDS011;3290;47.716;9.070;2024-03-02T07:03:37;83.37;;;22.70;;
6513;SDS011;3290;47.716;9.070;2024-03-02T07:06:04;79.67;;;23.17;;
6513;SDS011;3290;47.716;9.070;2024-03-02T07:08:30;71.03;;;21.97;;
6513;SDS011;3290;47.716;9.070;2024-03-02T07:10:55;46.37;;;21.23;;
6513;SDS011;3290;47.716;9.070;2024-03-02T07:13:22;63.23;;;20.80;;
6513;SDS011;3290;47.716;9.070;2024-03-02T07:15:50;49.80;;;19.53;;
6513;SDS011;3290;47.716;9.070;2024-03-02T07:18:27;41.93;;;19.57;;
6513;SDS011;3290;47.716;9.070;2024-03-02T07:20:53;48.97;;;19.50;;
6513;SDS011;3290;47.716;9.070;2024-03-02T07:23:18;37.97;;;19.90;;
6513;SDS011;3290;47.716;9.070;2024-03-02T07:25:45;42.00;;;18.60;;
6513;SDS011;3290;47.716;9.070;2024-03-02T07:28:11;37.87;;;18.07;;
6513;SDS011;3290;47.716;9.070;2024-03-02T07:30:37;40.67;;;18.53;;
6513;SDS011;3290;47.716;9.070;2024-03-02T07:33:04;40.20;;;17.67;;
6513;SDS011;3290;47.716;9.070;2024-03-02T07:35:29;41.77;;;19.23;;
6513;SDS011;3290;47.716;9.070;2024-03-02T07:37:56;41.77;;;19.80;;
6513;SDS011;3290;47.716;9.070;2024-03-02T07:40:22;40.77;;;19.77;;
6513;SDS011;3290;47.716;9.070;2024-03-02T07:42:48;38.47;;;19.50;;
6513;SDS011;3290;47.716;9.070;2024-03-02T07:45:13;29.97;;;17.27;;
6513;SDS011;3290;47.716;9.070;2024-03-02T07:47:39;34.93;;;17.30;;
6513;SDS011;3290;47.716;9.070;2024-03-02T07:50:04;26.47;;;14.93;;
6513;SDS011;3290;47.716;9.070;2024-03-02T07:52:31;34.80;;;17.97;;
6513;SDS011;3290;47.716;9.070;2024-03-02T07:54:57;46.57;;;17.53;;
6513;SDS011;3290;47.716;9.070;2024-03-02T07:57:22;30.90;;;17.60;;
6513;SDS011;3290;47.716;9.070;2024-03-02T07:59:48;35.63;;;18.50;;
6513;SDS011;3290;47.716;9.070;2024-03-02T08:02:14;34.73;;;16.37;;
6513;SDS011;3290;47.716;9.070;2024-03-02T08:04:40;39.33;;;18.27;;
6513;SDS011;3290;47.716;9.070;2024-03-02T08:07:05;38.93;;;20.20;;
6513;SDS011;3290;47.716;9.070;2024-03-02T08:09:31;53.60;;;19.27;;
6513;SDS011;3290;47.716;9.070;2024-03-02T08:11:56;32.77;;;18.10;;
6513;SDS011;3290;47.716;9.070;2024-03-02T08:14:23;47.13;;;19.07;;
6513;SDS011;3290;47.716;9.070;2024-03-02T08:16:49;33.30;;;19.70;;
6513;SDS011;3290;47.716;9.070;2024-03-02T08:19:14;44.07;;;24.20;;
6513;SDS011;3290;47.716;9.070;2024-03-02T08:21:40;36.13;;;19.70;;
6513;SDS011;3290;47.716;9.070;2024-03-02T08:24:05;32.70;;;17.37;;
6513;SDS011;3290;47.716;9.070;2024-03-02T08:26:32;36.40;;;19.10;;
6513;SDS011;3290;47.716;9.070;2024-03-02T08:29:00;34.90;;;17.73;;
6513;SDS011;3290;47.716;9.070;2024-03-02T08:31:29;172.50;;;81.23;;
6513;SDS011;3290;47.716;9.070;2024-03-02T08:33:55;61.67;;;30.60;;
6513;SDS011;3290;47.716;9.070;2024-03-02T08:36:22;57.07;;;25.90;;
6513;SDS011;3290;47.716;9.070;2024-03-02T08:38:48;36.37;;;20.20;;
6513;SDS011;3290;47.716;9.070;2024-03-02T08:41:14;98.60;;;49.57;;
6513;SDS011;3290;47.716;9.070;2024-03-02T08:43:41;56.67;;;25.90;;
6513;SDS011;3290;47.716;9.070;2024-03-02T08:46:07;58.23;;;19.03;;
6513;SDS011;3290;47.716;9.070;2024-03-02T08:48:33;42.00;;;16.70;;
6513;SDS011;3290;47.716;9.070;2024-03-02T08:50:59;35.47;;;17.67;;
6513;SDS011;3290;47.716;9.070;2024-03-02T08:53:24;40.73;;;21.40;;
6513;SDS011;3290;47.716;9.070;2024-03-02T08:55:49;29.43;;;16.90;;
6513;SDS011;3290;47.716;9.070;2024-03-02T08:58:15;39.97;;;16.87;;
6513;SDS011;3290;47.716;9.070;2024-03-02T09:00:41;28.17;;;15.77;;
6513;SDS011;3290;47.716;9.070;2024-03-02T09:03:07;37.73;;;17.50;;
6513;SDS011;3290;47.716;9.070;2024-03-02T09:05:32;27.33;;;16.40;;
6513;SDS011;3290;47.716;9.070;2024-03-02T09:07:58;26.90;;;15.27;;
6513;SDS011;3290;47.716;9.070;2024-03-02T09:10:23;27.13;;;15.53;;
6513;SDS011;3290;47.716;9.070;2024-03-02T09:12:48;30.70;;;16.30;;
6513;SDS011;3290;47.716;9.070;2024-03-02T09:15:15;22.07;;;13.53;;
6513;SDS011;3290;47.716;9.070;2024-03-02T09:17:40;23.33;;;14.20;;
6513;SDS011;3290;47.716;9.070;2024-03-02T09:20:06;405.27;;;168.57;;
6513;SDS011;3290;47.716;9.070;2024-03-02T09:22:32;48.03;;;23.67;;
6513;SDS011;3290;47.716;9.070;2024-03-02T09:24:57;150.03;;;54.20;;
6513;SDS011;3290;47.716;9.070;2024-03-02T09:27:23;34.83;;;22.30;;
6513;SDS011;3290;47.716;9.070;2024-03-02T09:29:48;26.93;;;15.73;;
6513;SDS011;3290;47.716;9.070;2024-03-02T09:32:14;30.03;;;17.00;;
6513;SDS011;3290;47.716;9.070;2024-03-02T09:34:40;23.57;;;15.20;;
6513;SDS011;3290;47.716;9.070;2024-03-02T09:37:06;27.40;;;15.90;;
6513;SDS011;3290;47.716;9.070;2024-03-02T09:39:31;28.07;;;14.17;;
6513;SDS011;3290;47.716;9.070;2024-03-02T09:41:57;26.80;;;16.67;;
6513;SDS011;3290;47.716;9.070;2024-03-02T09:44:24;25.67;;;15.50;;
6513;SDS011;3290;47.716;9.070;2024-03-02T09:46:50;33.27;;;17.23;;
6513;SDS011;3290;47.716;9.070;2024-03-02T09:49:16;26.63;;;15.63;;
6513;SDS011;3290;47.716;9.070;2024-03-02T09:51:46;22.93;;;13.33;;
6513;SDS011;3290;47.716;9.070;2024-03-02T09:54:13;19.30;;;12.97;;
6513;SDS011;3290;47.716;9.070;2024-03-02T09:56:40;24.17;;;15.60;;
6513;SDS011;3290;47.716;9.070;2024-03-02T09:59:06;28.07;;;13.70;;
6513;SDS011;3290;47.716;9.070;2024-03-02T10:01:31;22.60;;;13.00;;
6513;SDS011;3290;47.716;9.070;2024-03-02T10:04:00;24.97;;;13.50;;
6513;SDS011;3290;47.716;9.070;2024-03-02T10:06:26;20.10;;;11.60;;
6513;SDS011;3290;47.716;9.070;2024-03-02T10:08:52;24.03;;;13.37;;
6513;SDS011;3290;47.716;9.070;2024-03-02T10:11:30;23.90;;;14.27;;
6513;SDS011;3290;47.716;9.070;2024-03-02T10:16:35;24.23;;;13.70;;
6513;SDS011;3290;47.716;9.070;2024-03-02T10:19:21;26.53;;;13.80;;
6513;SDS011;3290;47.716;9.070;2024-03-02T10:21:48;22.80;;;12.47;;
6513;SDS011;3290;47.716;9.070;2024-03-02T10:24:20;18.33;;;10.30;;
6513;SDS011;3290;47.716;9.070;2024-03-02T10:26:47;21.00;;;11.93;;
6513;SDS011;3290;47.716;9.070;2024-03-02T10:29:13;18.10;;;11.20;;
6513;SDS011;3290;47.716;9.070;2024-03-02T10:31:39;16.37;;;10.63;;
6513;SDS011;3290;47.716;9.070;2024-03-02T10:34:06;16.87;;;10.77;;
6513;SDS011;3290;47.716;9.070;2024-03-02T10:36:36;21.30;;;10.40;;
6513;SDS011;3290;47.716;9.070;2024-03-02T10:39:05;18.43;;;10.40;;
6513;SDS011;3290;47.716;9.070;2024-03-02T10:41:37;15.60;;;9.30;;
6513;SDS011;3290;47.716;9.070;2024-03-02T10:44:04;12.07;;;9.07;;
6513;SDS011;3290;47.716;9.070;2024-03-02T10:46:31;14.23;;;9.30;;
6513;SDS011;3290;47.716;9.070;2024-03-02T10:48:58;10.90;;;8.00;;
6513;SDS011;3290;47.716;9.070;2024-03-02T10:51:25;12.77;;;8.37;;
6513;SDS011;3290;47.716;9.070;2024-03-02T10:53:52;10.60;;;7.33;;
6513;SDS011;3290;47.716;9.070;2024-03-02T10:56:23;11.47;;;8.17;;
6513;SDS011;3290;47.716;9.070;2024-03-02T10:58:55;10.60;;;7.20;;
6513;SDS011;3290;47.716;9.070;2024-03-02T11:01:26;12.67;;;8.60;;
6513;SDS011;3290;47.716;9.070;2024-03-02T11:03:54;18.90;;;8.80;;
6513;SDS011;3290;47.716;9.070;2024-03-02T11:06:19;12.70;;;9.43;;
6513;SDS011;3290;47.716;9.070;2024-03-02T11:08:47;15.03;;;9.50;;
6513;SDS011;3290;47.716;9.070;2024-03-02T11:11:21;10.70;;;8.07;;
6513;SDS011;3290;47.716;9.070;2024-03-02T11:13:54;11.77;;;7.97;;
6513;SDS011;3290;47.716;9.070;2024-03-02T11:16:33;13.57;;;8.90;;
6513;SDS011;3290;47.716;9.070;2024-03-02T11:19:04;12.93;;;9.57;;
6513;SDS011;3290;47.716;9.070;2024-03-02T11:21:32;12.33;;;8.07;;
6513;SDS011;3290;47.716;9.070;2024-03-02T11:23:59;12.67;;;8.20;;
6513;SDS011;3290;47.716;9.070;2024-03-02T11:26:24;11.57;;;8.30;;
6513;SDS011;3290;47.716;9.070;2024-03-02T11:28:50;12.67;;;8.30;;
6513;SDS011;3290;47.716;9.070;2024-03-02T11:31:15;11.97;;;8.37;;
6513;SDS011;3290;47.716;9.070;2024-03-02T11:33:40;12.50;;;7.80;;
6513;SDS011;3290;47.716;9.070;2024-03-02T11:36:06;12.97;;;8.80;;
6513;SDS011;3290;47.716;9.070;2024-03-02T11:38:33;9.73;;;7.70;;
6513;SDS011;3290;47.716;9.070;2024-03-02T11:41:00;10.00;;;7.70;;
6513;SDS011;3290;47.716;9.070;2024-03-02T11:43:30;13.10;;;7.83;;
6513;SDS011;3290;47.716;9.070;2024-03-02T11:46:01;9.70;;;7.47;;
6513;SDS011;3290;47.716;9.070;2024-03-02T11:48:31;12.13;;;8.40;;
6513;SDS011;3290;47.716;9.070;2024-03-02T11:51:00;12.55;;;8.85;;
6513;SDS011;3290;47.716;9.070;2024-03-02T11:53:27;11.57;;;8.53;;
6513;SDS011;3290;47.716;9.070;2024-03-02T11:55:57;12.30;;;8.60;;
6513;SDS011;3290;47.716;9.070;2024-03-02T11:58:23;14.10;;;8.87;;
6513;SDS011;3290;47.716;9.070;2024-03-02T12:00:53;13.90;;;8.60;;
6513;SDS011;3290;47.716;9.070;2024-03-02T12:03:20;13.87;;;9.30;;
6513;SDS011;3290;47.716;9.070;2024-03-02T12:05:52;15.60;;;9.70;;
6513;SDS011;3290;47.716;9.070;2024-03-02T12:08:18;16.10;;;9.50;;
6513;SDS011;3290;47.716;9.070;2024-03-02T12:10:44;17.63;;;9.77;;
6513;SDS011;3290;47.716;9.070;2024-03-02T12:13:21;13.70;;;9.43;;
6513;SDS011;3290;47.716;9.070;2024-03-02T12:15:53;14.77;;;9.73;;
6513;SDS011;3290;47.716;9.070;2024-03-02T12:18:22;15.87;;;9.87;;
6513;SDS011;3290;47.716;9.070;2024-03-02T12:20:48;14.20;;;8.23;;
6513;SDS011;3290;47.716;9.070;2024-03-02T12:23:17;14.60;;;9.13;;
6513;SDS011;3290;47.716;9.070;2024-03-02T12:25:43;13.67;;;9.23;;
6513;SDS011;3290;47.716;9.070;2024-03-02T12:28:09;19.53;;;9.60;;
6513;SDS011;3290;47.716;9.070;2024-03-02T12:30:35;13.13;;;8.97;;
6513;SDS011;3290;47.716;9.070;2024-03-02T12:33:00;12.53;;;8.20;;
6513;SDS011;3290;47.716;9.070;2024-03-02T12:35:26;18.53;;;7.90;;
6513;SDS011;3290;47.716;9.070;2024-03-02T12:37:52;10.13;;;7.70;;
6513;SDS011;3290;47.716;9.070;2024-03-02T12:40:19;13.67;;;8.27;;
6513;SDS011;3290;47.716;9.070;2024-03-02T12:42:45;12.40;;;8.33;;
6513;SDS011;3290;47.716;9.070;2024-03-02T12:45:12;9.97;;;7.73;;
6513;SDS011;3290;47.716;9.070;2024-03-02T12:47:39;12.73;;;8.87;;
6513;SDS011;3290;47.716;9.070;2024-03-02T12:50:05;11.97;;;7.90;;
6513;SDS011;3290;47.716;9.070;2024-03-02T12:52:31;10.90;;;7.80;;
6513;SDS011;3290;47.716;9.070;2024-03-02T12:54:58;14.57;;;7.23;;
6513;SDS011;3290;47.716;9.070;2024-03-02T12:57:33;13.27;;;7.63;;
6513;SDS011;3290;47.716;9.070;2024-03-02T13:02:28;11.17;;;7.33;;
6513;SDS011;3290;47.716;9.070;2024-03-02T13:04:55;14.10;;;7.50;;
6513;SDS011;3290;47.716;9.070;2024-03-02T13:07:22;10.13;;;7.73;;
6513;SDS011;3290;47.716;9.070;2024-03-02T13:09:52;12.30;;;8.03;;
6513;SDS011;3290;47.716;9.070;2024-03-02T13:12:22;10.20;;;7.50;;
6513;SDS011;3290;47.716;9.070;2024-03-02T13:14:52;12.27;;;6.93;;
6513;SDS011;3290;47.716;9.070;2024-03-02T13:17:18;10.97;;;7.47;;
6513;SDS011;3290;47.716;9.070;2024-03-02T13:19:51;9.27;;;7.03;;
6513;SDS011;3290;47.716;9.070;2024-03-02T13:22:18;11.10;;;7.30;;
6513;SDS011;3290;47.716;9.070;2024-03-02T13:24:43;9.63;;;7.40;;
6513;SDS011;3290;47.716;9.070;2024-03-02T13:27:09;9.60;;;6.60;;
6513;SDS011;3290;47.716;9.070;2024-03-02T13:29:34;8.70;;;5.87;;
6513;SDS011;3290;47.716;9.070;2024-03-02T13:31:59;7.10;;;5.67;;
6513;SDS011;3290;47.716;9.070;2024-03-02T13:34:25;7.53;;;6.23;;
6513;SDS011;3290;47.716;9.070;2024-03-02T13:36:50;9.27;;;6.43;;
6513;SDS011;3290;47.716;9.070;2024-03-02T13:39:15;6.10;;;4.97;;
6513;SDS011;3290;47.716;9.070;2024-03-02T13:41:41;6.77;;;4.83;;
6513;SDS011;3290;47.716;9.070;2024-03-02T13:44:07;6.43;;;5.73;;
6513;SDS011;3290;47.716;9.070;2024-03-02T13:46:32;5.73;;;4.67;;
6513;SDS011;3290;47.716;9.070;2024-03-02T13:48:57;11.60;;;5.53;;
6513;SDS011;3290;47.716;9.070;2024-03-02T13:51:23;5.43;;;4.20;;
6513;SDS011;3290;47.716;9.070;2024-03-02T13:53:50;4.60;;;3.80;;
6513;SDS011;3290;47.716;9.070;2024-03-02T13:56:15;4.27;;;3.47;;
6513;SDS011;3290;47.716;9.070;2024-03-02T13:58:42;6.10;;;4.57;;
6513;SDS011;3290;47.716;9.070;2024-03-02T14:01:08;8.43;;;5.07;;
6513;SDS011;3290;47.716;9.070;2024-03-02T14:03:34;11.60;;;3.87;;
6513;SDS011;3290;47.716;9.070;2024-03-02T14:05:59;5.20;;;4.27;;
6513;SDS011;3290;47.716;9.070;2024-03-02T14:08:25;7.10;;;4.30;;
6513;SDS011;3290;47.716;9.070;2024-03-02T14:10:50;4.67;;;3.90;;
6513;SDS011;3290;47.716;9.070;2024-03-02T14:13:16;4.93;;;3.40;;
6513;SDS011;3290;47.716;9.070;2024-03-02T14:15:41;6.50;;;4.20;;
6513;SDS011;3290;47.716;9.070;2024-03-02T14:18:07;9.60;;;4.50;;
6513;SDS011;3290;47.716;9.070;2024-03-02T14:20:35;4.77;;;3.60;;
6513;SDS011;3290;47.716;9.070;2024-03-02T14:23:00;3.90;;;3.50;;
6513;SDS011;3290;47.716;9.070;2024-03-02T14:25:27;4.83;;;3.60;;
6513;SDS011;3290;47.716;9.070;2024-03-02T14:27:56;5.40;;;4.10;;
6513;SDS011;3290;47.716;9.070;2024-03-02T14:30:22;4.70;;;3.60;;
6513;SDS011;3290;47.716;9.070;2024-03-02T14:32:48;4.60;;;3.80;;
6513;SDS011;3290;47.716;9.070;2024-03-02T14:35:14;5.87;;;4.30;;
6513;SDS011;3290;47.716;9.070;2024-03-02T14:37:40;5.50;;;4.20;;
6513;SDS011;3290;47.716;9.070;2024-03-02T14:40:08;9.77;;;6.10;;
6513;SDS011;3290;47.716;9.070;2024-03-02T14:42:35;9.50;;;5.20;;
6513;SDS011;3290;47.716;9.070;2024-03-02T14:45:01;4.83;;;3.70;;
6513;SDS011;3290;47.716;9.070;2024-03-02T14:47:28;5.20;;;3.33;;
6513;SDS011;3290;47.716;9.070;2024-03-02T14:49:54;3.87;;;3.00;;
6513;SDS011;3290;47.716;9.070;2024-03-02T14:52:20;3.90;;;3.50;;
6513;SDS011;3290;47.716;9.070;2024-03-02T14:54:45;16.37;;;10.37;;
6513;SDS011;3290;47.716;9.070;2024-03-02T14:57:11;6.30;;;4.33;;